createdAt,value
2022-09-23T00:15:33.296Z,16.20
2022-09-23T00:18:57.745Z,15.70
2022-09-23T00:22:28.652Z,15.40
2022-09-23T00:25:51.644Z,16.20
2022-09-23T00:43:06.831Z,18.30
2022-09-23T00:46:34.699Z,18.50
2022-09-23T01:03:33.717Z,20.30
2022-09-23T01:07:22.807Z,21.40
2022-09-23T01:25:14.618Z,24.80
2022-09-23T01:28:47.406Z,25.10
2022-09-23T01:31:59.497Z,25.60
2022-09-23T01:39:25.353Z,26.90
2022-09-23T01:43:03.809Z,25.70
2022-09-23T01:46:29.333Z,27.10
2022-09-23T02:00:46.855Z,23.20
2022-09-23T02:04:09.449Z,22.80
2022-09-23T02:07:46.324Z,22.30
2022-09-23T02:21:50.599Z,21.50
2022-09-23T02:25:19.952Z,19.90
2022-09-23T02:29:10.415Z,21.50
2022-09-23T02:48:07.220Z,22.20
2022-09-23T02:51:09.294Z,24.70
2022-09-23T02:54:28.758Z,21.60
2022-09-23T03:01:36.887Z,20.90
2022-09-23T03:22:48.295Z,19.40
2022-09-23T03:26:17.479Z,19.10
2022-09-23T03:29:30.920Z,18.20
2022-09-23T03:53:56.453Z,20.10
2022-09-23T03:57:06.916Z,20.80
2022-09-23T04:00:37.723Z,20.30
2022-09-23T04:17:48.735Z,20.20
2022-09-23T04:21:20.582Z,20.00
2022-09-23T04:24:30.934Z,17.20
2022-09-23T04:27:43.203Z,19.30
2022-09-23T04:30:48.975Z,19.90
2022-09-23T05:41:08.494Z,17.00
2022-09-23T05:44:48.722Z,15.90
2022-09-23T05:56:41.360Z,14.10
2022-09-23T06:00:18.104Z,15.70
2022-09-23T06:04:06.995Z,16.50
2022-09-23T11:45:30.508Z,2.20
2022-09-23T11:48:46.040Z,1.50
2022-09-23T11:51:32.097Z,2.00
2022-09-23T11:54:06.005Z,2.20
2022-09-23T11:56:41.666Z,1.90
2022-09-23T11:59:38.081Z,2.10
2022-09-23T12:02:20.858Z,2.30
2022-09-23T12:05:03.259Z,2.00
2022-09-23T12:07:45.087Z,1.50
2022-09-23T12:10:14.377Z,1.80
2022-09-23T12:12:49.088Z,1.80
2022-09-23T12:15:51.468Z,1.80
2022-09-23T12:18:54.178Z,1.50
2022-09-23T12:21:49.409Z,1.50
2022-09-23T12:24:43.905Z,1.30
2022-09-23T12:27:28.044Z,1.30
2022-09-23T12:30:01.692Z,1.50
2022-09-23T12:32:31.048Z,1.80
2022-09-23T12:35:00.596Z,1.80
2022-09-23T12:37:35.308Z,1.70
2022-09-23T12:40:19.159Z,1.70
2022-09-23T12:42:48.597Z,2.30
2022-09-23T12:45:35.527Z,1.60
2022-09-23T12:48:43.309Z,1.70
2022-09-23T12:51:20.406Z,2.40
2022-09-23T12:53:50.773Z,2.70
2022-09-23T12:56:18.887Z,2.60
2022-09-23T12:58:46.938Z,2.50
2022-09-23T13:01:15.370Z,2.90
2022-09-23T13:04:08.971Z,2.80
2022-09-23T13:07:06.018Z,2.60
2022-09-23T13:09:43.405Z,2.30
2022-09-23T13:12:33.456Z,2.30
2022-09-23T13:15:06.387Z,1.80
2022-09-23T13:17:37.685Z,2.10
2022-09-23T13:20:43.585Z,1.60
2022-09-23T13:23:12.830Z,2.00
2022-09-23T13:25:43.380Z,2.10
2022-09-23T13:28:58.657Z,2.20
2022-09-23T13:31:26.854Z,2.10
2022-09-23T13:35:01.259Z,2.10
2022-09-23T13:37:48.539Z,2.20
2022-09-23T13:40:20.752Z,2.20
2022-09-23T13:42:55.470Z,2.30
2022-09-23T13:45:25.943Z,1.50
2022-09-23T13:48:01.055Z,1.90
2022-09-23T13:50:34.232Z,1.80
2022-09-23T13:53:10.556Z,1.60
2022-09-23T13:55:40.194Z,1.80
2022-09-23T13:58:22.549Z,1.90
2022-09-23T14:00:51.610Z,1.60
2022-09-23T14:03:36.521Z,1.80
2022-09-23T14:06:11.474Z,2.50
2022-09-23T14:08:43.145Z,2.10
2022-09-23T14:11:30.164Z,1.80
2022-09-23T14:14:00.634Z,4.00
2022-09-23T14:16:29.797Z,3.60
2022-09-23T14:19:00.488Z,2.80
2022-09-23T14:21:30.276Z,2.70
2022-09-23T14:24:11.242Z,2.20
2022-09-23T14:26:40.760Z,2.60
2022-09-23T14:29:18.864Z,2.70
2022-09-23T14:31:57.107Z,2.90
2022-09-23T14:34:44.051Z,2.80
2022-09-23T14:37:36.994Z,3.40
2022-09-23T14:40:15.283Z,3.00
2022-09-23T14:42:48.292Z,1.90
2022-09-23T14:45:22.982Z,2.50
2022-09-23T14:48:00.148Z,3.30
2022-09-23T14:50:37.304Z,3.80
2022-09-23T14:53:18.640Z,3.40
2022-09-23T14:55:47.926Z,2.90
2022-09-23T14:58:18.336Z,3.00
2022-09-23T15:00:58.716Z,3.10
2022-09-23T15:03:28.721Z,3.70
2022-09-23T15:06:09.309Z,3.00
2022-09-23T15:08:37.413Z,3.10
2022-09-23T15:11:08.377Z,2.90
2022-09-23T15:13:46.721Z,2.90
2022-09-23T15:16:16.671Z,3.00
2022-09-23T15:18:46.343Z,2.80
2022-09-23T15:21:18.551Z,2.90
2022-09-23T15:23:49.101Z,2.60
2022-09-23T15:26:25.860Z,2.50
2022-09-23T15:28:58.684Z,3.20
2022-09-23T15:31:26.958Z,2.50
2022-09-23T15:33:56.103Z,3.30
2022-09-23T15:36:27.915Z,2.90
2022-09-23T15:38:57.506Z,2.90
2022-09-23T15:41:25.592Z,2.70
2022-09-23T15:43:56.491Z,3.50
2022-09-23T15:46:27.698Z,2.60
2022-09-23T15:49:03.101Z,2.60
2022-09-23T15:51:32.097Z,3.70
2022-09-23T15:54:00.150Z,2.90
2022-09-23T15:56:28.168Z,2.80
2022-09-23T15:58:56.146Z,3.00
2022-09-23T16:01:28.782Z,3.60
2022-09-23T16:03:57.720Z,3.50
2022-09-23T16:06:27.203Z,4.10
2022-09-23T16:08:55.771Z,3.70
2022-09-23T16:11:30.019Z,4.50
2022-09-23T16:14:00.548Z,3.80
2022-09-23T16:16:28.987Z,3.60
2022-09-23T16:18:57.223Z,4.80
2022-09-23T16:21:28.142Z,4.40
2022-09-23T16:23:59.436Z,5.90
2022-09-23T16:26:33.089Z,5.10
2022-09-23T16:29:01.904Z,3.80
2022-09-23T16:31:31.326Z,4.00
2022-09-23T16:34:02.523Z,3.70
2022-09-23T16:36:33.281Z,4.60
2022-09-23T16:39:08.825Z,4.20
2022-09-23T16:41:37.242Z,5.20
2022-09-23T16:44:07.656Z,4.20
2022-09-23T16:46:35.955Z,5.10
2022-09-23T16:49:04.521Z,4.50
2022-09-23T16:51:40.224Z,5.20
2022-09-23T16:54:10.952Z,4.80
2022-09-23T16:56:45.875Z,5.10
2022-09-23T16:59:15.172Z,4.60
2022-09-23T17:02:02.297Z,4.90
2022-09-23T17:04:30.464Z,6.40
2022-09-23T17:06:59.264Z,9.80
2022-09-23T17:09:29.097Z,8.70
2022-09-23T17:12:13.831Z,7.10
2022-09-23T17:14:41.915Z,9.50
2022-09-23T17:17:09.952Z,8.90
2022-09-23T17:19:41.566Z,8.70
2022-09-23T17:22:10.085Z,7.60
2022-09-23T17:24:38.066Z,8.60
2022-09-23T17:27:06.128Z,9.50
2022-09-23T17:29:34.270Z,9.80
2022-09-23T17:32:02.723Z,10.00
2022-09-23T17:34:33.466Z,12.40
2022-09-23T17:37:02.701Z,12.60
2022-09-23T17:39:31.848Z,15.40
2022-09-23T17:41:59.896Z,14.90
2022-09-23T17:44:27.909Z,15.10
2022-09-23T17:46:55.980Z,15.10
2022-09-23T17:49:24.665Z,15.70
2022-09-23T17:51:52.619Z,26.30
2022-09-23T17:54:20.666Z,16.90
2022-09-23T17:56:48.660Z,12.90
2022-09-23T17:59:17.271Z,8.60
2022-09-23T18:01:45.409Z,7.60
2022-09-23T18:04:13.457Z,6.60
2022-09-23T18:06:41.652Z,6.60
2022-09-23T18:09:10.486Z,8.20
2022-09-23T18:11:41.471Z,8.00
2022-09-23T18:14:15.975Z,8.00
2022-09-23T18:16:46.785Z,8.40
2022-09-23T18:19:17.377Z,8.10
2022-09-23T18:21:51.440Z,6.80
2022-09-23T18:24:31.805Z,6.00
2022-09-23T18:27:01.598Z,5.80
2022-09-23T18:29:29.708Z,5.30
2022-09-23T18:31:59.547Z,5.10
2022-09-23T18:34:29.200Z,4.60
2022-09-23T18:36:57.256Z,4.40
2022-09-23T18:39:25.409Z,5.50
2022-09-23T18:41:53.493Z,7.10
2022-09-23T18:44:21.594Z,6.60
2022-09-23T18:46:49.696Z,6.70
2022-09-23T18:49:36.283Z,6.90
2022-09-23T18:54:32.396Z,5.40
2022-09-23T18:57:00.817Z,4.70
2022-09-23T18:59:29.856Z,5.20
2022-09-23T19:01:59.215Z,4.20
2022-09-23T19:04:27.838Z,4.80
2022-09-23T19:06:57.315Z,5.90
2022-09-23T19:09:25.972Z,20.00
2022-09-23T19:11:54.126Z,58.70
2022-09-23T19:14:22.416Z,36.90
2022-09-23T19:16:51.049Z,11.70
2022-09-23T19:19:19.375Z,9.40
2022-09-23T19:21:47.497Z,6.90
2022-09-23T19:24:20.171Z,6.40
2022-09-23T19:26:48.989Z,6.10
2022-09-23T19:29:19.792Z,6.60
2022-09-23T19:31:48.865Z,9.00
2022-09-23T19:34:26.174Z,9.10
2022-09-23T19:36:57.491Z,8.30
2022-09-23T19:39:28.457Z,7.20
2022-09-23T19:41:56.561Z,6.90
2022-09-23T19:44:26.933Z,7.50
2022-09-23T19:46:57.546Z,7.70
2022-09-23T19:49:26.025Z,7.40
2022-09-23T19:51:56.191Z,7.80
2022-09-23T19:54:27.659Z,8.50
2022-09-23T19:56:56.152Z,8.70
2022-09-23T19:59:26.603Z,16.70
2022-09-23T20:01:55.191Z,18.10
2022-09-23T20:04:23.557Z,15.30
2022-09-23T20:06:51.986Z,12.30
2022-09-23T20:09:20.278Z,9.30
2022-09-23T20:11:48.411Z,7.40
2022-09-23T20:14:17.412Z,7.00
2022-09-23T20:16:46.404Z,6.90
2022-09-23T20:19:14.933Z,6.20
2022-09-23T20:21:43.013Z,6.80
2022-09-23T20:24:12.387Z,7.30
2022-09-23T20:26:59.052Z,7.00
2022-09-23T20:29:27.230Z,7.80
2022-09-23T20:31:57.086Z,8.50
2022-09-23T20:34:25.189Z,8.60
2022-09-23T20:36:53.275Z,9.10
2022-09-23T20:39:21.950Z,9.50
2022-09-23T20:41:50.580Z,9.10
2022-09-23T20:44:18.677Z,8.20
2022-09-23T20:46:48.948Z,6.80
2022-09-23T20:49:17.809Z,6.40
2022-09-23T20:51:48.343Z,6.80
2022-09-23T20:54:21.048Z,7.00
2022-09-23T20:56:49.062Z,6.50
2022-09-23T20:59:18.405Z,7.20
2022-09-23T21:01:46.895Z,6.60
2022-09-23T21:04:15.373Z,6.60
2022-09-23T21:06:43.428Z,6.70
2022-09-23T21:09:11.606Z,6.40
2022-09-23T21:11:39.638Z,6.30
2022-09-23T21:14:07.875Z,7.40
2022-09-23T21:16:36.146Z,7.00
2022-09-23T21:19:04.307Z,7.50
2022-09-23T21:21:32.303Z,7.80
2022-09-23T21:24:23.683Z,8.70
2022-09-23T21:26:50.587Z,7.80
2022-09-23T21:29:18.689Z,8.50
2022-09-23T21:31:50.058Z,9.40
2022-09-23T21:34:19.361Z,9.30
2022-09-23T21:36:48.195Z,7.90
2022-09-23T21:39:16.740Z,6.10
2022-09-23T21:41:45.090Z,5.70
2022-09-23T21:44:13.258Z,4.90
2022-09-23T21:46:41.586Z,4.70
2022-09-23T21:49:09.955Z,4.30
2022-09-23T21:51:43.359Z,4.30
2022-09-23T21:54:17.230Z,4.50
2022-09-23T21:56:45.443Z,3.80
2022-09-23T21:59:13.437Z,4.40
2022-09-23T22:01:45.198Z,4.50
2022-09-23T22:04:18.180Z,4.80
2022-09-23T22:06:46.906Z,4.60
2022-09-23T22:09:17.967Z,4.40
2022-09-23T22:12:05.092Z,3.40
2022-09-23T22:14:34.270Z,4.00
2022-09-23T22:17:05.308Z,3.70
2022-09-23T22:19:40.299Z,3.40
2022-09-23T22:22:13.253Z,3.70
2022-09-23T22:24:42.881Z,3.20
2022-09-23T22:27:13.357Z,3.90
2022-09-23T22:30:00.331Z,4.00
2022-09-23T22:32:54.240Z,3.60
2022-09-23T22:35:23.258Z,4.20
2022-09-23T22:37:51.473Z,3.60
2022-09-23T22:40:19.572Z,4.70
2022-09-23T22:42:48.608Z,4.40
2022-09-23T22:45:16.791Z,4.00
2022-09-23T22:47:46.023Z,3.70
2022-09-23T22:50:14.839Z,3.60
2022-09-23T22:52:43.423Z,5.00
2022-09-23T22:55:12.670Z,4.00
2022-09-23T22:57:40.984Z,3.90
2022-09-23T23:00:12.738Z,3.90
2022-09-23T23:02:42.545Z,4.80
2022-09-23T23:05:11.275Z,4.20
2022-09-23T23:07:39.249Z,4.30
2022-09-23T23:10:10.607Z,4.60
2022-09-23T23:12:39.706Z,5.00
2022-09-23T23:15:12.146Z,5.00
2022-09-23T23:17:41.434Z,5.30
2022-09-23T23:20:09.664Z,5.90
2022-09-23T23:22:37.731Z,5.10
2022-09-23T23:25:06.274Z,5.30
2022-09-23T23:27:34.735Z,5.10
2022-09-23T23:30:02.853Z,5.60
2022-09-23T23:32:31.268Z,5.00
2022-09-23T23:34:59.236Z,6.40
2022-09-23T23:37:29.416Z,6.40
2022-09-23T23:39:57.485Z,6.30
2022-09-23T23:42:27.237Z,5.70
2022-09-23T23:44:55.341Z,5.70
2022-09-23T23:47:24.134Z,7.00
2022-09-23T23:49:52.563Z,6.10
2022-09-23T23:52:20.668Z,7.30
2022-09-23T23:54:48.758Z,7.00
2022-09-23T23:57:16.699Z,6.60
2022-09-23T23:59:44.683Z,7.10
